Time;durP1;ratioP1;P1;durP2;ratioP2;P2;SDS_P1;SDS_P2;PMS_P1;PMS_P2;Temp;Humidity;BMP_temperature;BMP_pressure;BME280_temperature;BME280_humidity;BME280_pressure;Samples;Min_cycle;Max_cycle;Signal;HPM_P1;HPM_P2
2024/02/01 00:00:39;;;;;;;5.28;2.28;;;;;;;6.49;74.51;101263.41;4992506;28;20063;-53
2024/02/01 00:03:05;;;;;;;4.38;1.38;;;;;;;6.45;74.27;101282.13;4988420;28;20427;-53
2024/02/01 00:05:32;;;;;;;7.32;1.98;;;;;;;6.39;73.64;101278.50;4984281;28;20050;-53
2024/02/01 00:07:59;;;;;;;8.52;2.13;;;;;;;6.34;75.02;101274.91;4991586;28;20049;-53
2024/02/01 00:10:26;;;;;;;7.10;1.73;;;;;;;6.29;75.29;101276.47;4991890;28;20061;-54
2024/02/01 00:12:53;;;;;;;5.10;2.00;;;;;;;6.23;75.22;101297.72;4986328;28;20066;-57
2024/02/01 00:15:19;;;;;;;8.25;2.50;;;;;;;6.18;74.74;101288.94;4988848;28;20042;-52
2024/02/01 00:17:46;;;;;;;4.43;2.25;;;;;;;6.11;74.33;101287.84;4985283;28;20526;-53
2024/02/01 00:20:14;;;;;;;5.32;2.75;;;;;;;6.08;74.01;101282.59;4987385;28;20054;-52
2024/02/01 00:22:41;;;;;;;9.80;2.55;;;;;;;6.02;74.95;101288.34;4992808;28;20053;-51
2024/02/01 00:25:08;;;;;;;4.18;1.90;;;;;;;5.98;74.64;101306.22;4991426;28;20042;-56
2024/02/01 00:27:34;;;;;;;6.13;2.20;;;;;;;5.94;75.00;101314.63;4990017;28;20062;-54
2024/02/01 00:30:05;;;;;;;6.85;2.03;;;;;;;5.90;75.04;101324.81;4989607;28;20415;-53
2024/02/01 00:33:11;;;;;;;5.28;2.70;;;;;;;5.82;75.28;101326.22;4993624;28;20054;-51
2024/02/01 00:35:40;;;;;;;8.40;2.05;;;;;;;5.77;75.48;101323.47;4992462;28;20050;-55
2024/02/01 00:38:06;;;;;;;8.30;1.95;;;;;;;5.76;74.95;101331.13;4990584;28;20504;-52
2024/02/01 00:40:33;;;;;;;4.38;2.42;;;;;;;5.66;73.95;101328.22;4991316;28;20757;-52
2024/02/01 00:43:00;;;;;;;3.15;1.85;;;;;;;5.62;74.45;101334.06;4994576;28;20050;-55
2024/02/01 00:45:27;;;;;;;13.30;2.53;;;;;;;5.61;73.67;101336.56;4988593;28;20053;-50
2024/02/01 00:47:53;;;;;;;7.07;2.30;;;;;;;5.57;74.39;101335.53;4984908;28;20050;-55
2024/02/01 00:50:20;;;;;;;5.45;2.20;;;;;;;5.55;74.87;101338.88;4987626;28;20062;-56
2024/02/01 00:52:47;;;;;;;3.47;1.60;;;;;;;5.50;74.43;101339.56;4979167;28;20057;-54
2024/02/01 00:55:14;;;;;;;12.18;2.40;;;;;;;5.47;73.95;101338.59;4984727;28;20043;-54
2024/02/01 00:57:41;;;;;;;9.38;2.40;;;;;;;5.42;74.87;101348.69;4995261;28;20084;-54
2024/02/01 01:00:08;;;;;;;13.10;2.58;;;;;;;5.39;75.13;101352.00;4990024;28;20055;-54
2024/02/01 01:02:35;;;;;;;8.23;2.30;;;;;;;5.32;74.78;101360.28;4986739;28;20100;-50
2024/02/01 01:05:01;;;;;;;15.40;2.75;;;;;;;5.30;75.14;101361.03;4989474;28;20054;-55
2024/02/01 01:07:29;;;;;;;10.80;3.03;;;;;;;5.27;74.98;101369.50;4993609;28;20495;-52
2024/02/01 01:09:57;;;;;;;6.20;1.95;;;;;;;5.24;74.16;101366.81;4988162;28;20050;-54
2024/02/01 01:12:24;;;;;;;5.30;2.25;;;;;;;5.19;74.57;101373.44;4996246;28;20049;-51
2024/02/01 01:14:52;;;;;;;6.85;2.55;;;;;;;5.14;74.64;101381.84;4983849;28;20105;-52
2024/02/01 01:17:20;;;;;;;4.13;2.20;;;;;;;5.11;74.80;101386.88;4996405;28;20050;-55
2024/02/01 01:19:49;;;;;;;7.35;2.33;;;;;;;5.07;74.44;101386.66;4990628;28;20168;-53
2024/02/01 01:22:18;;;;;;;6.53;2.15;;;;;;;5.04;74.42;101390.00;4990929;28;20057;-55
2024/02/01 01:24:45;;;;;;;5.03;1.90;;;;;;;5.00;75.14;101377.84;4990564;28;20053;-49
2024/02/01 01:27:13;;;;;;;7.97;1.92;;;;;;;4.98;74.66;101387.16;4996887;28;20080;-53
2024/02/01 01:29:41;;;;;;;5.93;2.08;;;;;;;4.98;74.36;101389.72;4996467;28;20503;-51
2024/02/01 01:32:08;;;;;;;6.55;2.78;;;;;;;4.97;74.47;101393.13;4996133;28;20065;-52
2024/02/01 01:34:35;;;;;;;7.90;1.70;;;;;;;4.94;75.07;101387.84;5000786;28;20127;-53
2024/02/01 01:37:03;;;;;;;10.30;2.97;;;;;;;4.91;75.37;101398.88;4999579;28;20050;-52
2024/02/01 01:39:31;;;;;;;8.55;1.48;;;;;;;4.88;75.38;101399.63;5000410;28;20469;-54
2024/02/01 01:41:58;;;;;;;9.00;1.83;;;;;;;4.88;75.26;101409.88;4994397;28;20105;-51
2024/02/01 01:44:27;;;;;;;4.88;2.70;;;;;;;4.85;75.06;101408.88;4987717;28;20046;-54
2024/02/01 01:46:55;;;;;;;10.02;2.40;;;;;;;4.82;75.04;101396.78;4991086;28;20546;-53
2024/02/01 01:49:25;;;;;;;6.32;1.35;;;;;;;4.79;74.95;101404.34;4996113;28;20411;-56
2024/02/01 01:51:56;;;;;;;5.35;1.77;;;;;;;4.77;74.79;101405.97;4997440;28;20054;-53
2024/02/01 01:54:25;;;;;;;10.10;2.13;;;;;;;4.75;75.32;101402.47;4991803;28;20058;-53
2024/02/01 01:56:53;;;;;;;6.55;2.80;;;;;;;4.70;74.96;101403.97;4993206;28;20137;-50
2024/02/01 01:59:23;;;;;;;8.68;1.75;;;;;;;4.69;74.58;101415.03;4994263;28;20625;-55
2024/02/01 02:01:51;;;;;;;15.68;2.03;;;;;;;4.65;75.33;101410.56;4986408;28;20054;-54
2024/02/01 02:04:19;;;;;;;3.70;2.65;;;;;;;4.60;75.14;101418.94;4989556;28;20062;-53
2024/02/01 02:06:47;;;;;;;5.78;1.92;;;;;;;4.59;74.42;101426.59;4992604;28;20203;-54
2024/02/01 02:09:15;;;;;;;10.35;2.53;;;;;;;4.57;74.31;101433.34;5000197;28;20054;-51
2024/02/01 02:11:43;;;;;;;6.95;2.55;;;;;;;4.53;75.34;101432.34;4996787;28;20081;-56
2024/02/01 02:14:11;;;;;;;7.80;0.95;;;;;;;4.49;75.30;101435.53;4989604;28;20583;-57
2024/02/01 02:16:38;;;;;;;10.93;2.55;;;;;;;4.46;75.14;101445.69;4994596;28;20133;-55
2024/02/01 02:19:09;;;;;;;11.77;2.20;;;;;;;4.44;74.78;101434.47;4987483;28;20058;-50
2024/02/01 02:21:43;;;;;;;8.52;2.80;;;;;;;4.41;74.77;101426.63;4994829;28;20089;-51
2024/02/01 02:24:10;;;;;;;10.90;2.35;;;;;;;4.39;74.83;101433.41;4996426;28;20076;-53
2024/02/01 02:26:37;;;;;;;8.02;2.30;;;;;;;4.36;74.80;101423.88;4987864;28;20046;-51
2024/02/01 02:29:04;;;;;;;12.20;2.78;;;;;;;4.32;74.61;101427.97;4994385;28;20124;-48
2024/02/01 02:31:31;;;;;;;8.25;2.08;;;;;;;4.29;74.75;101438.09;4992842;28;20093;-54
2024/02/01 02:33:59;;;;;;;13.77;2.13;;;;;;;4.26;75.28;101437.97;4992098;28;20137;-53
2024/02/01 02:36:26;;;;;;;8.40;2.95;;;;;;;4.23;74.84;101454.06;4981685;28;20043;-56
2024/02/01 02:38:52;;;;;;;7.38;1.95;;;;;;;4.18;74.47;101450.44;4995120;28;20513;-54
2024/02/01 02:41:19;;;;;;;7.18;1.95;;;;;;;4.15;75.04;101454.56;4986831;28;20558;-49
2024/02/01 02:43:47;;;;;;;9.18;2.55;;;;;;;4.11;74.96;101450.97;4996849;28;20510;-50
2024/02/01 02:46:14;;;;;;;12.50;2.45;;;;;;;4.07;74.67;101456.75;4994277;28;20073;-56
2024/02/01 02:48:40;;;;;;;3.80;2.10;;;;;;;4.06;74.70;101460.97;4999141;28;20064;-57
2024/02/01 02:51:07;;;;;;;8.70;2.45;;;;;;;4.04;74.72;101457.50;4989015;28;20042;-50
2024/02/01 02:53:34;;;;;;;8.30;2.42;;;;;;;4.02;74.81;101453.97;4989349;28;20058;-54
2024/02/01 02:56:05;;;;;;;10.10;3.03;;;;;;;3.99;74.89;101454.69;4994283;28;20046;-52
2024/02/01 02:58:33;;;;;;;12.07;2.60;;;;;;;3.98;75.03;101467.44;4991786;28;20057;-54
2024/02/01 03:01:05;;;;;;;14.82;2.50;;;;;;;3.96;75.36;101469.94;4991720;28;20046;-53
2024/02/01 03:03:33;;;;;;;7.80;3.95;;;;;;;3.95;75.18;101473.31;4989692;28;20842;-52
2024/02/01 03:05:59;;;;;;;10.07;2.08;;;;;;;3.94;74.71;101475.78;4997310;28;20141;-56
2024/02/01 03:08:27;;;;;;;5.40;2.50;;;;;;;3.91;75.23;101478.22;4990591;28;20077;-55
2024/02/01 03:10:53;;;;;;;11.80;2.35;;;;;;;3.90;74.77;101484.16;4992866;28;20050;-55
2024/02/01 03:13:21;;;;;;;14.65;1.70;;;;;;;3.86;74.82;101486.56;4995801;28;20596;-55
2024/02/01 03:15:48;;;;;;;7.95;2.75;;;;;;;3.82;74.77;101482.09;4988989;28;20042;-51
2024/02/01 03:18:15;;;;;;;6.38;2.25;;;;;;;3.80;74.79;101482.84;4987727;28;20057;-53
2024/02/01 03:20:44;;;;;;;12.10;2.08;;;;;;;3.78;74.64;101485.31;4987319;28;20054;-53
2024/02/01 03:23:11;;;;;;;7.75;2.13;;;;;;;3.76;74.79;101478.38;4988457;28;20132;-51
2024/02/01 03:25:39;;;;;;;7.57;2.90;;;;;;;3.76;74.90;101492.06;4991032;28;20064;-54
2024/02/01 03:28:06;;;;;;;7.85;2.38;;;;;;;3.76;74.38;101498.88;4989234;28;20062;-55
2024/02/01 03:30:38;;;;;;;10.25;2.40;;;;;;;3.74;74.66;101498.78;4987919;28;20185;-52
2024/02/01 03:33:05;;;;;;;6.65;1.67;;;;;;;3.70;74.76;101502.91;4990724;28;20054;-50
2024/02/01 03:35:32;;;;;;;9.10;2.63;;;;;;;3.71;74.74;101498.63;4992680;28;20050;-51
2024/02/01 03:38:00;;;;;;;7.55;1.85;;;;;;;3.68;74.61;101501.06;4993212;28;20140;-50
2024/02/01 03:40:27;;;;;;;10.05;1.92;;;;;;;3.63;74.48;101500.84;4987471;28;20078;-51
2024/02/01 03:42:54;;;;;;;12.57;0.70;;;;;;;3.67;74.93;101507.88;4996096;28;20669;-53
2024/02/01 03:45:21;;;;;;;17.73;2.60;;;;;;;3.68;74.69;101519.00;4992078;28;20045;-56
2024/02/01 03:47:48;;;;;;;8.07;2.53;;;;;;;3.69;74.96;101525.88;4992707;28;20136;-53
2024/02/01 03:50:16;;;;;;;12.40;1.63;;;;;;;3.66;74.87;101521.50;4992361;28;20054;-54
2024/02/01 03:52:43;;;;;;;14.07;2.30;;;;;;;3.66;74.60;101533.41;4988792;28;20042;-49
2024/02/01 03:55:18;;;;;;;8.45;2.72;;;;;;;3.63;74.65;101535.81;4993087;28;20081;-50
2024/02/01 03:57:46;;;;;;;13.68;2.72;;;;;;;3.63;74.49;101535.81;4984158;28;20042;-51
2024/02/01 04:00:30;;;;;;;7.50;2.88;;;;;;;3.61;74.95;101543.44;4984313;28;20046;-55
2024/02/01 04:02:58;;;;;;;10.02;2.00;;;;;;;3.60;74.50;101555.38;4984982;28;20137;-56
2024/02/01 04:05:26;;;;;;;7.60;2.10;;;;;;;3.60;74.21;101555.38;4980748;28;20145;-54
2024/02/01 04:07:54;;;;;;;9.00;2.35;;;;;;;3.58;74.50;101564.66;4973580;28;20061;-55
2024/02/01 04:10:20;;;;;;;11.40;2.88;;;;;;;3.56;74.19;101553.47;4979915;28;20050;-54
2024/02/01 04:12:48;;;;;;;8.82;2.03;;;;;;;3.54;74.63;101562.75;4963638;28;20046;-49
2024/02/01 04:15:15;;;;;;;11.48;2.55;;;;;;;3.51;74.12;101565.16;4982323;28;20491;-50
2024/02/01 04:17:42;;;;;;;19.83;2.97;;;;;;;3.50;74.08;101570.19;4972959;28;20047;-53
2024/02/01 04:20:13;;;;;;;8.05;2.03;;;;;;;3.48;74.16;101572.69;4963850;28;20058;-56
2024/02/01 04:22:42;;;;;;;13.48;2.47;;;;;;;3.46;74.36;101579.41;4969864;28;20089;-54
2024/02/01 04:25:08;;;;;;;10.82;1.38;;;;;;;3.44;74.40;101586.13;4989556;28;20528;-56
2024/02/01 04:27:36;;;;;;;10.50;1.52;;;;;;;3.43;74.88;101589.50;4980725;28;20457;-46
2024/02/01 04:30:06;;;;;;;8.60;2.83;;;;;;;3.41;74.97;101599.66;4990391;28;20050;-53
2024/02/01 04:32:34;;;;;;;8.50;2.03;;;;;;;3.39;74.44;101602.94;4981983;28;20080;-51
2024/02/01 04:35:04;;;;;;;10.73;2.15;;;;;;;3.36;74.89;101597.66;4989781;28;20077;-55
2024/02/01 04:37:32;;;;;;;10.32;2.15;;;;;;;3.35;74.57;101614.72;4993046;28;20104;-50
2024/02/01 04:40:00;;;;;;;7.32;2.35;;;;;;;3.33;74.10;101621.44;4984836;28;20054;-55
2024/02/01 04:42:30;;;;;;;10.25;2.80;;;;;;;3.30;74.17;101624.72;4990047;28;20050;-54
2024/02/01 04:44:58;;;;;;;10.90;1.77;;;;;;;3.28;74.90;101626.31;4980522;28;20058;-54
2024/02/01 04:47:27;;;;;;;15.98;1.05;;;;;;;3.26;74.08;101621.91;4983514;28;20450;-49
2024/02/01 04:49:53;;;;;;;10.65;2.13;;;;;;;3.22;74.41;101623.44;4980546;28;20505;-51
2024/02/01 04:52:20;;;;;;;10.88;1.80;;;;;;;3.19;74.81;101630.94;4980453;28;20582;-55
2024/02/01 04:54:47;;;;;;;12.68;1.90;;;;;;;3.19;74.69;101636.06;4982138;28;20132;-57
2024/02/01 04:57:14;;;;;;;8.50;2.53;;;;;;;3.19;74.26;101633.50;4980614;28;20054;-52
2024/02/01 04:59:43;;;;;;;6.78;2.47;;;;;;;3.19;74.23;101638.63;4981413;28;20145;-50
2024/02/01 05:02:14;;;;;;;5.72;3.00;;;;;;;3.18;74.37;101629.19;4982805;28;21169;-58
2024/02/01 05:04:43;;;;;;;11.60;3.72;;;;;;;3.15;74.37;101626.47;4983593;28;20058;-51
2024/02/01 05:07:10;;;;;;;8.02;1.88;;;;;;;3.14;74.35;101634.97;4977004;28;20050;-53
2024/02/01 05:09:39;;;;;;;6.20;2.22;;;;;;;3.15;74.58;101634.16;4982471;28;20050;-54
2024/02/01 05:12:07;;;;;;;13.55;2.28;;;;;;;3.13;74.60;101634.06;4983065;28;20043;-49
2024/02/01 05:14:35;;;;;;;7.40;2.03;;;;;;;3.10;74.31;101625.34;4982920;28;20062;-52
2024/02/01 05:17:02;;;;;;;18.45;3.15;;;;;;;3.09;74.31;101629.59;4984356;28;20101;-54
2024/02/01 05:19:29;;;;;;;13.40;2.22;;;;;;;3.10;74.82;101627.91;4981498;28;20050;-50
2024/02/01 05:21:56;;;;;;;9.57;2.78;;;;;;;3.06;74.56;101625.19;4983605;28;20046;-52
2024/02/01 05:24:25;;;;;;;12.70;3.08;;;;;;;3.04;74.48;101634.44;4983408;28;20058;-49
2024/02/01 05:26:52;;;;;;;6.70;2.95;;;;;;;3.01;73.79;101644.50;4982112;28;20074;-55
2024/02/01 05:29:24;;;;;;;12.93;2.40;;;;;;;3.00;74.60;101653.00;4990347;28;20054;-54
2024/02/01 05:31:53;;;;;;;13.43;2.53;;;;;;;2.97;74.66;101655.38;4975448;28;20058;-49
2024/02/01 05:34:21;;;;;;;9.68;2.95;;;;;;;2.94;74.30;101661.22;4997714;28;20045;-57
2024/02/01 05:36:51;;;;;;;9.38;2.42;;;;;;;2.92;74.69;101667.97;4989751;28;20058;-56
2024/02/01 05:39:26;;;;;;;6.65;2.58;;;;;;;2.89;74.90;101672.91;4988277;28;20058;-51
2024/02/01 05:41:57;;;;;;;11.60;2.63;;;;;;;2.87;74.78;101673.63;4988590;28;20064;-54
2024/02/01 05:44:26;;;;;;;14.52;3.10;;;;;;;2.86;74.97;101677.84;4989441;28;20558;-57
2024/02/01 05:46:55;;;;;;;9.02;1.25;;;;;;;2.85;74.17;101672.66;4991581;28;20691;-51
2024/02/01 05:49:28;;;;;;;7.90;2.20;;;;;;;2.85;74.90;101670.97;4981455;28;20050;-54
2024/02/01 05:52:02;;;;;;;8.73;2.13;;;;;;;2.82;74.04;101666.56;4985151;28;20054;-54
2024/02/01 05:54:32;;;;;;;5.35;1.90;;;;;;;2.79;74.46;101671.53;4987654;28;20058;-49
2024/02/01 05:56:59;;;;;;;8.98;1.63;;;;;;;2.80;74.36;101668.16;4994192;28;20164;-53
2024/02/01 05:59:26;;;;;;;12.45;2.85;;;;;;;2.79;74.04;101671.53;4990310;28;20051;-54
2024/02/01 06:01:53;;;;;;;10.50;3.75;;;;;;;2.77;74.66;101673.09;4993597;28;20514;-54
2024/02/01 06:04:21;;;;;;;11.43;2.92;;;;;;;2.74;75.17;101678.06;4996875;28;20054;-52
2024/02/01 06:06:48;;;;;;;9.80;3.40;;;;;;;2.73;74.55;101686.50;4994979;28;20050;-53
2024/02/01 06:09:15;;;;;;;8.60;1.65;;;;;;;2.73;74.73;101696.75;4990997;28;20061;-57
2024/02/01 06:11:46;;;;;;;12.13;3.53;;;;;;;2.74;75.13;101698.53;4991647;28;20499;-53
2024/02/01 06:14:16;;;;;;;14.65;3.63;;;;;;;2.73;74.37;101707.00;4996086;28;20133;-52
2024/02/01 06:16:43;;;;;;;11.68;3.78;;;;;;;2.72;75.02;101709.47;4990510;28;20054;-52
2024/02/01 06:19:11;;;;;;;7.45;2.20;;;;;;;2.72;74.89;101710.34;4981305;28;20153;-55
2024/02/01 06:21:38;;;;;;;12.43;2.72;;;;;;;2.67;74.18;101712.63;4987122;28;20054;-51
2024/02/01 06:24:05;;;;;;;9.70;2.70;;;;;;;2.68;74.93;101716.09;4981608;28;20050;-51
2024/02/01 06:26:32;;;;;;;12.57;2.50;;;;;;;2.68;74.44;101710.97;4980987;28;20066;-55
2024/02/01 06:29:07;;;;;;;13.55;2.53;;;;;;;2.66;74.15;101712.56;4982565;28;20050;-53
2024/02/01 06:31:38;;;;;;;65.18;23.88;;;;;;;2.63;74.40;101707.28;4983818;28;20126;-48
2024/02/01 06:34:08;;;;;;;29.35;13.40;;;;;;;2.63;74.43;101710.69;4982543;28;20116;-54
2024/02/01 06:36:38;;;;;;;14.88;5.25;;;;;;;2.62;74.70;101720.84;4994855;28;20050;-50
2024/02/01 06:39:16;;;;;;;10.18;3.53;;;;;;;2.59;75.37;101728.34;4987467;28;20431;-56
2024/02/01 06:44:32;;;;;;;16.80;5.90;;;;;;;2.53;75.33;101718.66;4985146;28;20046;-52
2024/02/01 06:55:06;;;;;;;15.20;6.50;;;;;;;2.46;74.41;101743.00;5099259;27;20396;-55
2024/02/01 06:57:44;;;;;;;14.55;6.45;;;;;;;2.42;75.25;101743.59;5081943;28;20535;-54
2024/02/01 07:03:13;;;;;;;14.57;5.45;;;;;;;2.39;74.85;101744.31;5058617;28;20155;-53
2024/02/01 07:11:25;;;;;;;15.82;4.78;;;;;;;2.82;74.35;101739.91;5052348;27;20417;-54
2024/02/01 07:16:43;;;;;;;15.50;3.92;;;;;;;2.54;75.43;101752.00;5045735;27;20390;-53
2024/02/01 07:19:12;;;;;;;12.55;3.80;;;;;;;2.53;75.44;101760.47;5016627;28;20125;-49
2024/02/01 07:57:55;;;;;;;10.07;2.50;;;;;;;2.27;74.87;101803.28;5011877;28;20057;-52
2024/02/01 08:00:32;;;;;;;21.20;6.07;;;;;;;2.27;74.63;101808.41;5015354;28;20131;-57
2024/02/01 08:03:04;;;;;;;6.72;3.30;;;;;;;2.27;75.82;101808.41;5013380;28;20057;-55
2024/02/01 08:08:18;;;;;;;12.45;2.53;;;;;;;2.32;75.54;101811.25;5015831;28;20058;-52
2024/02/01 08:10:47;;;;;;;45.90;10.18;;;;;;;2.35;74.19;101818.19;5021350;28;20057;-53
2024/02/01 08:13:15;;;;;;;19.75;4.85;;;;;;;2.39;75.06;101828.72;5010308;28;20057;-53
2024/02/01 08:15:42;;;;;;;6.80;2.30;;;;;;;2.44;75.51;101839.22;5013785;28;20514;-54
2024/02/01 08:18:10;;;;;;;7.32;2.17;;;;;;;2.47;74.57;101844.53;5010261;28;20078;-56
2024/02/01 08:20:39;;;;;;;14.15;1.50;;;;;;;2.48;74.78;101843.72;5011371;28;20061;-51
2024/02/01 08:23:09;;;;;;;4.55;0.90;;;;;;;2.57;74.05;101848.53;5014902;28;20042;-52
2024/02/01 08:25:40;;;;;;;7.43;0.90;;;;;;;2.63;74.09;101848.88;5013048;28;20697;-52
2024/02/01 08:28:09;;;;;;;8.57;1.83;;;;;;;2.73;74.37;101855.41;4995734;28;20049;-53
2024/02/01 08:30:36;;;;;;;5.47;1.15;;;;;;;2.89;74.34;101856.28;5009654;28;20078;-52
2024/02/01 08:33:03;;;;;;;5.30;1.00;;;;;;;3.07;75.01;101856.47;4998871;28;20062;-49
2024/02/01 08:35:33;;;;;;;9.27;2.65;;;;;;;3.30;74.49;101865.47;4999876;28;20479;-56
2024/02/01 08:38:02;;;;;;;21.40;3.65;;;;;;;3.55;74.54;101856.59;5004296;28;20101;-51
2024/02/01 08:40:32;;;;;;;8.60;1.83;;;;;;;3.81;74.46;101858.81;4999003;28;20121;-49
2024/02/01 08:42:59;;;;;;;5.90;1.40;;;;;;;4.05;74.55;101869.50;4996420;28;20068;-53
2024/02/01 08:45:29;;;;;;;9.88;1.67;;;;;;;4.30;73.67;101862.25;4999232;28;20099;-54
2024/02/01 08:48:00;;;;;;;10.50;1.25;;;;;;;4.54;73.30;101867.78;5002718;28;20712;-56
2024/02/01 08:50:31;;;;;;;14.73;5.03;;;;;;;4.77;73.54;101862.94;5001057;28;20141;-48
2024/02/01 08:52:59;;;;;;;34.05;9.60;;;;;;;5.03;72.92;101860.75;5010747;28;20041;-54
2024/02/01 08:55:27;;;;;;;43.53;13.35;;;;;;;5.35;72.44;101864.03;5018545;28;20605;-55
2024/02/01 08:57:54;;;;;;;30.42;9.40;;;;;;;5.79;72.04;101873.78;5005425;28;20081;-52
2024/02/01 09:00:25;;;;;;;18.02;7.50;;;;;;;6.23;73.07;101873.19;5002972;28;20053;-58
2024/02/01 09:03:03;;;;;;;19.70;6.00;;;;;;;6.58;71.44;101879.00;5002432;28;20058;-55
2024/02/01 09:05:32;;;;;;;24.35;5.38;;;;;;;6.88;70.97;101881.13;5001329;28;20057;-54
2024/02/01 09:08:02;;;;;;;19.15;7.13;;;;;;;7.18;70.10;101874.59;4998758;28;20046;-56
2024/02/01 09:10:31;;;;;;;13.90;3.10;;;;;;;7.42;69.86;101879.88;5007050;28;20053;-54
2024/02/01 09:12:59;;;;;;;15.00;3.13;;;;;;;7.68;69.25;101885.19;5007879;28;20561;-54
2024/02/01 09:15:31;;;;;;;6.97;2.33;;;;;;;8.00;69.95;101876.03;4994066;28;20515;-53
2024/02/01 09:17:58;;;;;;;15.68;2.08;;;;;;;8.34;69.49;101877.25;4991953;28;20041;-54
2024/02/01 09:20:25;;;;;;;9.82;1.90;;;;;;;8.73;68.41;101874.38;5004357;28;20050;-54
2024/02/01 09:22:53;;;;;;;9.27;3.38;;;;;;;9.11;68.66;101865.25;5007129;28;20978;-55
2024/02/01 09:25:22;;;;;;;7.72;2.05;;;;;;;9.38;67.19;101869.56;4997718;28;20050;-56
2024/02/01 09:27:49;;;;;;;8.32;2.05;;;;;;;9.60;67.70;101880.56;5003218;28;20053;-58
2024/02/01 09:30:19;;;;;;;18.15;3.05;;;;;;;9.85;67.23;101887.38;5010926;28;20072;-52
2024/02/01 09:32:51;;;;;;;;;;;;;;;10.20;67.66;101899.59;5001088;28;20084;-53
2024/02/01 09:35:19;;;;;;;19.15;4.88;;;;;;;10.57;66.94;101919.63;5005475;28;19973;-54
2024/02/01 09:37:51;;;;;;;16.35;5.28;;;;;;;10.88;65.14;101912.69;5002313;28;20065;-54
2024/02/01 09:40:19;;;;;;;10.65;3.08;;;;;;;11.22;64.90;101921.31;5004325;28;20130;-54
2024/02/01 09:42:49;;;;;;;16.17;4.18;;;;;;;11.46;64.26;101902.00;5000872;28;20067;-57
2024/02/01 09:45:19;;;;;;;19.17;5.07;;;;;;;11.76;63.60;101906.09;5009031;28;20042;-54
2024/02/01 09:47:49;;;;;;;14.88;4.45;;;;;;;12.14;63.02;101909.53;5007774;28;20053;-55
2024/02/01 09:50:20;;;;;;;9.85;2.97;;;;;;;12.56;62.96;101919.03;5001536;28;20053;-54
2024/02/01 09:52:50;;;;;;;6.00;1.95;;;;;;;12.92;61.83;101922.28;5005236;28;20041;-52
2024/02/01 09:55:19;;;;;;;13.27;2.30;;;;;;;13.13;61.64;101914.84;5007614;28;20125;-51
2024/02/01 09:57:49;;;;;;;10.80;2.80;;;;;;;13.33;61.73;101923.81;5001249;28;20069;-58
2024/02/01 10:00:21;;;;;;;9.07;2.33;;;;;;;13.52;61.03;101912.84;5006427;28;20471;-55
2024/02/01 10:02:52;;;;;;;4.20;1.95;;;;;;;13.73;60.16;101913.19;5000695;28;20500;-52
2024/02/01 10:05:19;;;;;;;;;;;;;;;13.91;60.64;101922.09;4998816;28;20081;-52
2024/02/01 10:07:46;;;;;;;11.82;2.35;;;;;;;14.17;59.77;101903.31;5002380;28;19921;-55
2024/02/01 10:10:15;;;;;;;10.02;2.40;;;;;;;14.33;59.02;101904.38;4982040;28;20053;-51
2024/02/01 10:12:43;;;;;;;23.13;4.82;;;;;;;14.61;58.49;101909.88;5006165;28;20084;-51
2024/02/01 10:15:11;;;;;;;45.47;12.38;;;;;;;15.02;58.04;101915.50;5002920;28;20046;-54
2024/02/01 10:17:49;;;;;;;21.73;4.78;;;;;;;15.38;57.76;101924.50;5005581;28;20046;-55
2024/02/01 10:20:33;;;;;;;10.85;3.03;;;;;;;15.66;56.95;101914.25;4997925;28;20989;-50
2024/02/01 10:23:03;;;;;;;9.98;3.63;;;;;;;15.94;56.47;101918.72;5001863;28;20052;-52
2024/02/01 10:25:39;;;;;;;36.20;12.23;;;;;;;16.25;55.66;101918.03;5004655;28;20050;-55
2024/02/01 10:28:08;;;;;;;9.75;2.05;;;;;;;16.65;55.04;101925.97;5000687;28;20060;-57
2024/02/01 10:30:39;;;;;;;11.30;3.85;;;;;;;16.91;54.46;101930.38;5005370;28;20051;-56
2024/02/01 10:33:07;;;;;;;9.73;2.00;;;;;;;17.28;53.52;101923.41;5007439;28;20060;-54
2024/02/01 10:35:35;;;;;;;7.30;1.90;;;;;;;17.75;54.03;101918.09;5003969;28;20049;-57
2024/02/01 10:38:12;;;;;;;10.57;2.85;;;;;;;18.20;53.15;101921.47;4996718;28;20049;-59
2024/02/01 10:41:10;;;;;;;7.95;2.30;;;;;;;18.56;52.02;101917.75;5005961;28;20049;-50
2024/02/01 10:43:44;;;;;;;8.50;2.30;;;;;;;18.84;51.19;101928.06;5006434;28;20052;-58
2024/02/01 10:46:27;;;;;;;10.05;2.80;;;;;;;18.93;49.20;101922.78;5006429;28;20487;-54
2024/02/01 10:49:07;;;;;;;10.90;2.40;;;;;;;18.74;47.59;101917.66;5006331;28;20100;-52
2024/02/01 10:51:37;;;;;;;12.50;3.25;;;;;;;18.37;48.63;101924.00;5005652;28;20045;-52
2024/02/01 10:54:06;;;;;;;9.20;2.03;;;;;;;17.97;49.05;101925.00;5001431;28;20077;-57
2024/02/01 10:56:33;;;;;;;11.60;2.15;;;;;;;17.66;48.81;101919.88;4996214;28;20077;-53
2024/02/01 10:59:07;;;;;;;9.90;2.80;;;;;;;17.33;47.94;101926.94;4997561;28;20050;-56
2024/02/01 11:01:37;;;;;;;9.63;1.63;;;;;;;16.85;48.58;101934.75;4991844;28;20426;-55
2024/02/01 11:04:05;;;;;;;11.57;2.85;;;;;;;16.40;48.79;101936.38;4995581;28;20058;-52
2024/02/01 11:06:33;;;;;;;8.73;2.13;;;;;;;16.05;49.14;101937.13;4989532;28;20698;-59
2024/02/01 11:09:17;;;;;;;10.30;1.70;;;;;;;15.75;49.61;101930.81;4997290;28;20698;-54
2024/02/01 11:11:49;;;;;;;9.63;2.30;;;;;;;15.14;48.53;101935.63;4998916;28;20204;-56
2024/02/01 11:14:21;;;;;;;12.10;2.33;;;;;;;14.64;49.85;101928.19;5005144;28;20058;-58
2024/02/01 11:16:56;;;;;;;7.70;1.65;;;;;;;14.12;51.13;101926.69;5001021;28;20056;-54
2024/02/01 11:19:29;;;;;;;8.48;1.38;;;;;;;13.74;51.24;101921.84;5002710;28;20054;-52
2024/02/01 11:21:58;;;;;;;10.52;1.40;;;;;;;13.31;51.04;101917.72;4998086;28;20058;-55
2024/02/01 11:24:29;;;;;;;5.22;1.48;;;;;;;12.99;51.97;101928.47;5008381;28;20068;-51
2024/02/01 11:26:58;;;;;;;6.60;1.42;;;;;;;12.64;52.32;101936.50;5005471;28;20045;-59
2024/02/01 11:29:27;;;;;;;2.80;0.85;;;;;;;12.18;52.44;101926.94;4992229;28;20502;-54
2024/02/01 11:34:33;;;;;;;8.57;1.42;;;;;;;11.72;53.24;101938.03;5036328;28;20430;-55
2024/02/01 11:37:04;;;;;;;6.78;1.67;;;;;;;11.65;55.30;101930.97;4985894;28;20042;-56
2024/02/01 11:39:31;;;;;;;3.50;1.10;;;;;;;11.61;55.54;101939.50;4983231;28;20054;-54
2024/02/01 11:41:59;;;;;;;5.22;1.38;;;;;;;11.48;53.99;101939.22;4995515;28;20042;-51
2024/02/01 11:44:27;;;;;;;3.08;0.80;;;;;;;11.44;54.92;101943.47;4983020;28;20053;-54
2024/02/01 11:46:56;;;;;;;4.63;0.80;;;;;;;11.28;54.62;101957.75;4975214;28;20057;-56
2024/02/01 11:49:25;;;;;;;7.82;2.78;;;;;;;11.07;54.19;101952.06;4983164;28;20562;-56
2024/02/01 11:54:33;;;;;;;8.48;2.85;;;;;;;10.75;56.08;101955.53;5063218;28;20758;-54
2024/02/01 11:57:02;;;;;;;12.27;2.00;;;;;;;10.65;56.49;101954.41;5014140;28;20050;-55
2024/02/01 11:59:28;;;;;;;8.48;1.10;;;;;;;10.53;56.55;101950.63;4996932;28;20058;-53
2024/02/01 12:01:56;;;;;;;7.20;1.83;;;;;;;10.48;57.33;101952.22;5003621;28;20050;-53
2024/02/01 12:04:25;;;;;;;7.75;1.73;;;;;;;10.51;56.92;101962.66;5003783;28;20053;-56
2024/02/01 12:06:52;;;;;;;7.03;1.58;;;;;;;10.45;57.31;101952.13;5003407;28;20132;-55
2024/02/01 12:09:18;;;;;;;9.80;1.90;;;;;;;10.41;57.05;101961.47;4990896;28;20085;-56
2024/02/01 12:11:45;;;;;;;9.52;1.92;;;;;;;10.40;57.41;101948.47;4994241;28;20050;-53
2024/02/01 12:14:17;;;;;;;7.43;1.77;;;;;;;10.36;57.44;101951.81;4993888;28;20092;-56
2024/02/01 12:16:49;;;;;;;5.88;1.20;;;;;;;10.32;58.62;101947.38;4995768;28;20069;-55
2024/02/01 12:19:20;;;;;;;5.50;1.88;;;;;;;10.27;58.47;101942.94;4993093;28;20056;-54
2024/02/01 12:21:53;;;;;;;9.90;2.35;;;;;;;10.18;57.78;101947.00;4991791;28;20057;-56
2024/02/01 12:24:26;;;;;;;6.38;1.30;;;;;;;10.20;58.17;101941.00;4993909;28;20069;-52
2024/02/01 12:26:53;;;;;;;7.68;1.73;;;;;;;10.25;58.12;101934.28;4996194;28;20050;-55
2024/02/01 12:29:21;;;;;;;11.48;1.90;;;;;;;10.29;58.31;101936.13;4993507;28;20058;-57
2024/02/01 12:31:49;;;;;;;8.40;2.33;;;;;;;10.35;59.01;101924.16;4991898;28;20053;-55
2024/02/01 12:34:17;;;;;;;8.70;1.55;;;;;;;10.31;58.44;101933.56;4995123;28;20129;-52
2024/02/01 12:36:48;;;;;;;5.72;1.45;;;;;;;10.27;58.52;101922.22;4988002;28;20050;-58
2024/02/01 12:39:16;;;;;;;;;;;;;;;10.00;57.94;101925.78;4991785;28;21832;-57
2024/02/01 12:41:45;;;;;;;12.85;1.63;;;;;;;10.02;58.28;101920.63;4995724;28;19931;-56
2024/02/01 12:44:14;;;;;;;2.63;0.88;;;;;;;10.00;59.00;101912.81;4990694;28;20046;-55